createdAt,value
2022-08-03T00:07:53.465Z,99.9
2022-08-03T00:19:53.545Z,99.9
2022-08-03T00:32:00.189Z,99.9
2022-08-03T00:43:53.478Z,99.9
2022-08-03T00:55:53.442Z,99.9
2022-08-03T01:07:53.465Z,99.9
2022-08-03T01:19:53.470Z,99.9
2022-08-03T01:33:02.785Z,99.9
2022-08-03T01:44:26.193Z,99.9
2022-08-03T01:55:53.472Z,99.9
2022-08-03T02:07:53.451Z,99.9
2022-08-03T02:19:53.466Z,99.9
2022-08-03T02:31:53.457Z,99.9
2022-08-03T02:44:07.222Z,99.9
2022-08-03T02:55:53.472Z,99.9
2022-08-03T03:07:53.485Z,99.9
2022-08-03T03:19:53.530Z,99.9
2022-08-03T03:31:53.507Z,99.9
2022-08-03T03:43:53.511Z,99.9
2022-08-03T03:55:59.530Z,99.9
2022-08-03T04:07:53.450Z,99.9
2022-08-03T04:19:53.477Z,99.9
2022-08-03T04:31:53.455Z,99.9
2022-08-03T04:43:53.466Z,99.9
2022-08-03T04:55:53.434Z,99.9
2022-08-03T05:07:53.436Z,99.9
2022-08-03T05:19:53.410Z,99.9
2022-08-03T05:31:53.444Z,99.9
2022-08-03T05:43:53.462Z,99.9
2022-08-03T05:55:56.975Z,99.9
2022-08-03T06:07:53.456Z,99.9
2022-08-03T06:19:53.472Z,98.7
2022-08-03T06:31:53.462Z,96.3
2022-08-03T06:44:03.928Z,96.8
2022-08-03T06:55:54.882Z,96.3
2022-08-03T07:07:53.457Z,96.1
2022-08-03T07:19:53.490Z,94.6
2022-08-03T07:31:53.453Z,93.2
2022-08-03T07:43:53.454Z,93.9
2022-08-03T07:55:53.470Z,93.2
2022-08-03T08:07:53.453Z,92.1
2022-08-03T08:19:53.614Z,91.4
2022-08-03T08:31:53.462Z,91.5
2022-08-03T08:43:58.126Z,88.9
2022-08-03T08:55:59.365Z,87.9
2022-08-03T09:07:53.456Z,86.2
2022-08-03T09:20:03.609Z,83.7
2022-08-03T09:31:53.457Z,83.8
2022-08-03T09:43:53.459Z,79.7
2022-08-03T09:56:33.220Z,75.6
2022-08-03T10:07:53.460Z,76.4
2022-08-03T10:19:53.467Z,73.3
2022-08-03T10:31:57.282Z,76.7
2022-08-03T10:43:53.471Z,72.1
2022-08-03T10:55:53.460Z,73.9
2022-08-03T11:07:54.767Z,72.2
2022-08-03T11:19:57.662Z,69.8
2022-08-03T11:31:53.459Z,70.4
2022-08-03T11:43:53.466Z,68.9
2022-08-03T11:55:53.449Z,66.8
2022-08-03T12:08:04.421Z,66.4
2022-08-03T12:19:53.479Z,66.6
2022-08-03T12:31:53.407Z,65.5
2022-08-03T12:43:53.470Z,61.8
2022-08-03T12:55:57.662Z,62.4
2022-08-03T13:07:53.459Z,62.6
2022-08-03T13:19:53.484Z,62.3
2022-08-03T13:31:53.688Z,61.4
2022-08-03T13:44:12.063Z,61.0
2022-08-03T13:55:53.439Z,59.4
2022-08-03T14:07:55.134Z,58.6
2022-08-03T14:19:54.138Z,59.1
2022-08-03T14:32:09.642Z,60.0
2022-08-03T14:44:01.333Z,57.2
2022-08-03T14:55:53.532Z,56.4
2022-08-03T15:07:53.452Z,55.4
2022-08-03T15:20:02.165Z,56.1
2022-08-03T15:31:53.478Z,55.2
2022-08-03T15:43:53.430Z,54.6
2022-08-03T15:55:53.466Z,55.2
2022-08-03T16:08:02.825Z,55.1
2022-08-03T16:19:55.127Z,54.4
2022-08-03T16:31:53.447Z,53.9
2022-08-03T16:43:53.459Z,53.9
2022-08-03T16:55:54.373Z,55.1
2022-08-03T17:07:54.054Z,53.9
2022-08-03T17:19:55.173Z,55.0
2022-08-03T17:31:53.463Z,55.4
2022-08-03T17:44:15.738Z,55.5
2022-08-03T17:55:59.070Z,56.8
2022-08-03T18:07:59.505Z,56.1
2022-08-03T18:20:03.343Z,58.1
2022-08-03T18:32:01.532Z,58.8
2022-08-03T18:44:06.730Z,59.6
2022-08-03T18:56:01.857Z,61.2
2022-08-03T19:07:58.354Z,63.0
2022-08-03T19:19:53.464Z,63.9
2022-08-03T19:31:58.783Z,64.9
2022-08-03T19:43:57.681Z,66.4
2022-08-03T19:55:53.454Z,67.4
2022-08-03T20:07:53.465Z,69.1
2022-08-03T20:19:53.465Z,70.3
2022-08-03T20:31:53.439Z,73.4
2022-08-03T20:43:53.474Z,76.3
2022-08-03T20:56:02.175Z,77.6
2022-08-03T21:08:05.549Z,82.2
2022-08-03T21:19:53.522Z,83.8
2022-08-03T21:31:53.509Z,85.1
2022-08-03T21:43:53.500Z,85.5
2022-08-03T21:55:53.498Z,86.0
2022-08-03T22:07:53.568Z,88.9
2022-08-03T22:19:53.494Z,88.6
2022-08-03T22:31:58.916Z,90.1
2022-08-03T22:43:54.272Z,90.4
2022-08-03T22:55:53.493Z,90.7
2022-08-03T23:07:53.496Z,91.8
2022-08-03T23:19:53.735Z,93.0
2022-08-03T23:31:53.550Z,95.3
2022-08-03T23:43:54.370Z,96.3
2022-08-03T23:55:53.453Z,97.3
